createdAt,value
2022-12-28T00:01:48.751Z,80.67
2022-12-28T00:06:53.103Z,80.56
2022-12-28T00:11:55.850Z,81.40
2022-12-28T00:17:00.627Z,80.92
2022-12-28T00:22:03.480Z,80.90
2022-12-28T00:27:06.384Z,81.09
2022-12-28T00:32:09.311Z,81.46
2022-12-28T00:37:13.324Z,81.40
2022-12-28T00:42:36.452Z,81.39
2022-12-28T00:47:39.503Z,81.01
2022-12-28T00:52:42.412Z,81.06
2022-12-28T00:57:45.112Z,81.08
2022-12-28T01:02:48.014Z,81.20
2022-12-28T01:07:50.935Z,80.67
2022-12-28T01:12:54.156Z,80.71
2022-12-28T01:17:56.927Z,80.92
2022-12-28T01:22:59.688Z,80.85
2022-12-28T01:28:02.494Z,81.12
2022-12-28T01:33:07.419Z,81.14
2022-12-28T01:38:10.186Z,81.34
2022-12-28T01:43:29.320Z,81.54
2022-12-28T01:48:33.391Z,81.46
2022-12-28T01:53:38.510Z,81.65
2022-12-28T01:58:41.638Z,81.57
2022-12-28T02:03:44.662Z,81.84
2022-12-28T02:09:10.305Z,81.68
2022-12-28T02:14:13.257Z,81.78
2022-12-28T02:19:20.970Z,82.01
2022-12-28T02:25:12.220Z,82.14
2022-12-28T02:30:16.616Z,82.37
2022-12-28T02:35:55.914Z,82.61
2022-12-28T02:41:08.718Z,82.77
2022-12-28T02:46:47.571Z,83.03
2022-12-28T02:52:07.902Z,83.34
2022-12-28T02:57:54.849Z,83.52
2022-12-28T03:03:25.621Z,83.76
2022-12-28T03:09:16.362Z,84.03
2022-12-28T03:14:27.011Z,84.18
2022-12-28T03:19:55.745Z,84.40
2022-12-28T03:25:20.304Z,84.84
2022-12-28T03:30:45.827Z,85.33
2022-12-28T03:35:59.830Z,85.23
2022-12-28T03:41:08.434Z,85.30
2022-12-28T03:46:22.356Z,85.72
2022-12-28T03:51:25.439Z,86.12
2022-12-28T03:56:30.677Z,86.03
2022-12-28T04:01:33.634Z,86.21
2022-12-28T04:06:36.441Z,86.33
2022-12-28T04:11:39.795Z,86.24
2022-12-28T04:16:42.608Z,86.43
2022-12-28T04:21:45.859Z,86.57
2022-12-28T04:26:48.609Z,86.57
2022-12-28T04:31:51.323Z,86.96
2022-12-28T04:36:54.082Z,87.06
2022-12-28T04:41:56.834Z,87.23
2022-12-28T04:47:01.152Z,87.11
2022-12-28T04:52:04.049Z,87.30
2022-12-28T04:57:06.908Z,87.45
2022-12-28T05:02:10.548Z,87.92
2022-12-28T05:07:13.466Z,88.04
2022-12-28T05:12:16.248Z,87.77
2022-12-28T05:17:19.047Z,88.11
2022-12-28T05:22:21.962Z,88.15
2022-12-28T05:27:25.606Z,88.02
2022-12-28T05:32:28.344Z,88.06
2022-12-28T05:37:31.154Z,87.85
2022-12-28T05:42:35.555Z,88.33
2022-12-28T05:47:38.415Z,88.52
2022-12-28T05:52:41.205Z,88.69
2022-12-28T05:57:43.983Z,88.48
2022-12-28T06:02:46.891Z,88.21
2022-12-28T06:07:53.311Z,88.61
2022-12-28T06:12:56.246Z,88.76
2022-12-28T06:17:58.988Z,88.91
2022-12-28T06:23:02.215Z,88.81
2022-12-28T06:28:05.434Z,88.85
2022-12-28T06:33:09.134Z,89.05
2022-12-28T06:38:13.291Z,89.24
2022-12-28T06:43:16.394Z,89.29
2022-12-28T06:48:19.132Z,89.14
2022-12-28T06:53:27.878Z,89.12
2022-12-28T06:58:30.917Z,89.29
2022-12-28T07:03:34.372Z,89.37
2022-12-28T07:08:37.217Z,89.51
2022-12-28T07:13:40.198Z,89.54
2022-12-28T07:18:43.220Z,89.62
2022-12-28T07:23:46.119Z,89.87
2022-12-28T07:28:51.781Z,89.97
2022-12-28T07:33:56.196Z,90.02
2022-12-28T07:38:59.308Z,90.01
2022-12-28T07:44:02.249Z,90.00
2022-12-28T07:49:05.349Z,90.06
2022-12-28T07:54:10.322Z,90.29
2022-12-28T07:59:18.463Z,90.32
2022-12-28T08:04:21.221Z,90.30
2022-12-28T08:09:26.037Z,90.34
2022-12-28T08:14:31.327Z,90.30
2022-12-28T08:19:34.091Z,90.31
2022-12-28T08:24:39.319Z,90.62
2022-12-28T08:29:42.168Z,90.44
2022-12-28T08:34:44.970Z,90.33
2022-12-28T08:39:47.789Z,90.47
2022-12-28T08:44:50.527Z,90.27
2022-12-28T08:49:53.349Z,90.32
2022-12-28T08:54:57.171Z,90.30
2022-12-28T09:00:00.003Z,90.15
2022-12-28T09:05:02.866Z,90.12
2022-12-28T09:10:06.968Z,90.00
2022-12-28T09:15:10.560Z,89.66
2022-12-28T09:20:13.393Z,89.44
2022-12-28T09:25:16.209Z,89.02
2022-12-28T09:30:19.185Z,88.58
2022-12-28T09:35:22.028Z,88.16
2022-12-28T09:40:24.826Z,88.15
2022-12-28T09:45:27.716Z,87.30
2022-12-28T09:50:31.830Z,86.67
2022-12-28T09:55:38.278Z,86.36
2022-12-28T10:00:48.123Z,85.58
2022-12-28T10:05:51.555Z,84.91
2022-12-28T10:10:56.259Z,84.57
2022-12-28T10:15:59.186Z,84.27
2022-12-28T10:21:02.079Z,82.70
2022-12-28T10:26:05.153Z,83.65
2022-12-28T10:31:12.112Z,83.50
2022-12-28T10:36:15.686Z,83.44
2022-12-28T10:41:21.492Z,82.93
2022-12-28T10:46:24.571Z,82.75
2022-12-28T10:51:28.461Z,81.37
2022-12-28T10:56:33.307Z,81.91
2022-12-28T11:01:36.692Z,81.22
2022-12-28T11:07:00.815Z,80.21
2022-12-28T11:12:23.292Z,79.84
2022-12-28T11:17:28.377Z,78.89
2022-12-28T11:22:32.470Z,79.22
2022-12-28T11:27:36.498Z,79.66
2022-12-28T11:32:59.520Z,79.12
2022-12-28T11:38:04.575Z,79.65
2022-12-28T11:43:29.238Z,79.77
2022-12-28T11:48:44.233Z,79.96
2022-12-28T11:53:46.982Z,79.50
2022-12-28T11:58:59.043Z,79.95
2022-12-28T12:04:22.085Z,79.98
2022-12-28T12:09:25.827Z,79.90
2022-12-28T12:14:48.250Z,78.57
2022-12-28T12:19:55.810Z,79.02
2022-12-28T12:25:42.867Z,78.98
2022-12-28T12:30:45.888Z,78.55
2022-12-28T12:36:21.486Z,78.81
2022-12-28T12:41:42.791Z,78.03
2022-12-28T12:47:06.957Z,78.40
2022-12-28T12:52:09.761Z,78.39
2022-12-28T12:57:25.053Z,78.77
2022-12-28T13:03:00.693Z,78.45
2022-12-28T13:08:04.002Z,78.51
2022-12-28T13:13:08.858Z,78.52
2022-12-28T13:18:44.019Z,78.21
2022-12-28T13:23:45.900Z,78.24
2022-12-28T13:29:02.885Z,78.30
2022-12-28T13:34:30.489Z,78.79
2022-12-28T13:39:40.021Z,78.61
2022-12-28T13:45:05.069Z,78.20
2022-12-28T13:50:15.838Z,78.43
2022-12-28T13:55:26.016Z,79.15
2022-12-28T14:00:29.139Z,79.12
2022-12-28T14:05:32.324Z,79.22
2022-12-28T14:10:36.584Z,79.22
2022-12-28T14:15:41.516Z,79.22
2022-12-28T14:20:54.921Z,79.21
2022-12-28T14:26:06.702Z,78.94
2022-12-28T14:31:12.332Z,79.49
2022-12-28T14:36:43.203Z,79.67
2022-12-28T14:41:46.408Z,79.90
2022-12-28T14:46:54.405Z,80.25
2022-12-28T14:52:17.871Z,80.50
2022-12-28T14:57:52.521Z,80.36
2022-12-28T15:02:55.982Z,80.44
2022-12-28T15:08:00.056Z,80.83
2022-12-28T15:13:03.298Z,80.61
2022-12-28T15:18:08.483Z,80.46
2022-12-28T15:23:11.468Z,80.79
2022-12-28T15:28:15.284Z,80.64
2022-12-28T15:33:18.603Z,80.38
2022-12-28T15:38:23.751Z,79.85
2022-12-28T15:43:26.538Z,79.72
2022-12-28T15:48:32.446Z,79.59
2022-12-28T15:53:35.147Z,79.03
2022-12-28T15:58:37.883Z,79.12
2022-12-28T16:03:42.198Z,78.72
2022-12-28T16:08:45.034Z,78.56
2022-12-28T16:13:59.515Z,78.61
2022-12-28T16:19:02.871Z,78.44
2022-12-28T16:24:05.959Z,78.11
2022-12-28T16:29:11.835Z,78.63
2022-12-28T16:34:16.878Z,78.92
2022-12-28T16:39:21.099Z,78.39
2022-12-28T16:44:26.939Z,78.45
2022-12-28T16:49:30.000Z,78.04
2022-12-28T16:54:33.108Z,77.76
2022-12-28T16:59:35.878Z,77.34
2022-12-28T17:04:38.659Z,77.42
2022-12-28T17:09:46.656Z,77.36
2022-12-28T17:14:52.673Z,76.86
2022-12-28T17:19:56.979Z,76.84
2022-12-28T17:24:59.789Z,76.57
2022-12-28T17:30:02.999Z,76.15
2022-12-28T17:35:06.798Z,76.14
2022-12-28T17:40:10.435Z,75.82
2022-12-28T17:45:13.175Z,75.46
2022-12-28T17:50:18.421Z,75.42
2022-12-28T17:55:21.188Z,75.01
2022-12-28T18:00:23.987Z,74.96
2022-12-28T18:05:26.823Z,74.76
2022-12-28T18:10:29.759Z,74.66
2022-12-28T18:15:34.093Z,74.25
2022-12-28T18:20:36.900Z,74.19
2022-12-28T18:25:39.756Z,74.44
2022-12-28T18:30:43.262Z,74.06
2022-12-28T18:35:46.105Z,73.88
2022-12-28T18:40:53.252Z,74.23
2022-12-28T18:45:58.424Z,73.87
2022-12-28T18:51:10.350Z,74.03
2022-12-28T18:56:20.221Z,74.40
2022-12-28T19:02:04.667Z,74.03
2022-12-28T19:06:47.984Z,74.30
2022-12-28T19:11:52.826Z,74.13
2022-12-28T19:16:55.627Z,74.53
2022-12-28T19:21:59.039Z,75.14
2022-12-28T19:27:02.182Z,74.70
2022-12-28T19:32:05.407Z,74.28
2022-12-28T19:37:08.257Z,74.61
2022-12-28T19:42:10.999Z,74.47
2022-12-28T19:47:13.745Z,75.00
2022-12-28T19:52:17.121Z,74.75
2022-12-28T19:57:21.635Z,75.13
2022-12-28T20:02:24.665Z,74.80
2022-12-28T20:07:27.663Z,74.57
2022-12-28T20:12:30.448Z,74.67
2022-12-28T20:17:34.368Z,74.64
2022-12-28T20:22:41.368Z,74.75
2022-12-28T20:27:44.110Z,74.53
2022-12-28T20:32:46.976Z,74.63
2022-12-28T20:37:49.767Z,74.91
2022-12-28T20:43:11.215Z,75.07
2022-12-28T20:48:14.542Z,75.01
2022-12-28T20:53:17.564Z,74.61
2022-12-28T20:58:20.583Z,74.44
2022-12-28T21:03:23.648Z,74.64
2022-12-28T21:08:30.699Z,75.12
2022-12-28T21:13:35.284Z,75.07
2022-12-28T21:18:41.496Z,75.15
2022-12-28T21:23:44.442Z,75.29
2022-12-28T21:28:47.245Z,75.38
2022-12-28T21:33:50.135Z,75.57
2022-12-28T21:38:52.891Z,75.53
2022-12-28T21:43:55.640Z,75.25
2022-12-28T21:48:58.579Z,75.66
2022-12-28T21:54:07.257Z,76.02
2022-12-28T21:59:11.718Z,75.97
2022-12-28T22:04:38.460Z,75.64
2022-12-28T22:10:00.312Z,75.99
2022-12-28T22:15:36.370Z,76.08
2022-12-28T22:20:39.224Z,75.95
2022-12-28T22:25:44.790Z,75.93
2022-12-28T22:30:47.604Z,76.05
2022-12-28T22:35:50.432Z,75.73
2022-12-28T22:40:58.214Z,75.87
2022-12-28T22:46:11.779Z,75.88
2022-12-28T22:51:16.967Z,75.51
2022-12-28T22:56:21.033Z,75.40
2022-12-28T23:01:24.084Z,75.35
2022-12-28T23:06:27.571Z,75.33
2022-12-28T23:11:36.580Z,75.31
2022-12-28T23:16:39.446Z,75.12
2022-12-28T23:22:01.282Z,74.97
2022-12-28T23:27:20.790Z,75.08
2022-12-28T23:32:23.631Z,74.85
2022-12-28T23:37:26.642Z,74.86
2022-12-28T23:42:29.611Z,74.79
2022-12-28T23:47:32.758Z,74.93
2022-12-28T23:52:36.899Z,74.48
2022-12-28T23:57:39.803Z,74.15
